createdAt,value
2018-07-15T00:02:10.854Z,3.63
2018-07-15T00:04:39.130Z,3.40
2018-07-15T00:07:07.398Z,3.03
2018-07-15T00:09:35.639Z,3.57
2018-07-15T00:12:03.979Z,3.43
2018-07-15T00:14:32.265Z,3.27
2018-07-15T00:17:00.276Z,3.70
2018-07-15T00:19:28.536Z,3.97
2018-07-15T00:21:56.794Z,3.03
2018-07-15T00:24:25.098Z,3.70
2018-07-15T00:26:53.373Z,3.70
2018-07-15T00:29:21.588Z,3.60
2018-07-15T00:31:49.793Z,3.33
2018-07-15T00:34:18.054Z,3.70
2018-07-15T00:36:46.382Z,3.67
2018-07-15T00:39:14.655Z,3.40
2018-07-15T00:41:42.925Z,3.23
2018-07-15T00:44:11.161Z,3.67
2018-07-15T00:46:39.401Z,3.47
2018-07-15T00:49:08.129Z,3.60
2018-07-15T00:51:36.377Z,3.30
2018-07-15T00:54:04.682Z,3.93
2018-07-15T00:56:32.962Z,3.60
2018-07-15T00:59:01.258Z,3.30
2018-07-15T01:01:29.534Z,3.63
2018-07-15T01:03:57.737Z,3.60
2018-07-15T01:06:26.030Z,3.57
2018-07-15T01:08:54.255Z,3.70
2018-07-15T01:11:22.521Z,3.63
2018-07-15T01:13:50.801Z,3.23
2018-07-15T01:16:19.027Z,4.10
2018-07-15T01:18:47.342Z,3.33
2018-07-15T01:21:15.574Z,3.50
2018-07-15T01:23:43.549Z,3.50
2018-07-15T01:26:11.813Z,3.47
2018-07-15T01:28:40.101Z,3.57
2018-07-15T01:31:08.422Z,4.00
2018-07-15T01:33:36.666Z,3.67
2018-07-15T01:36:04.932Z,3.70
2018-07-15T01:38:33.138Z,3.83
2018-07-15T01:41:01.422Z,3.40
2018-07-15T01:43:29.629Z,3.60
2018-07-15T01:45:57.869Z,4.20
2018-07-15T01:48:26.104Z,3.27
2018-07-15T01:50:54.378Z,3.83
2018-07-15T01:53:22.670Z,3.50
2018-07-15T01:55:50.950Z,4.40
2018-07-15T01:58:19.553Z,3.53
2018-07-15T02:00:47.874Z,3.93
2018-07-15T02:03:16.093Z,3.87
2018-07-15T02:05:44.436Z,3.90
2018-07-15T02:08:12.669Z,3.73
2018-07-15T02:10:40.909Z,4.00
2018-07-15T02:13:09.114Z,3.67
2018-07-15T02:15:37.461Z,3.43
2018-07-15T02:18:05.779Z,3.70
2018-07-15T02:20:34.019Z,4.80
2018-07-15T02:23:02.255Z,3.93
2018-07-15T02:25:30.477Z,3.73
2018-07-15T02:27:58.770Z,3.73
2018-07-15T02:30:27.050Z,3.93
2018-07-15T02:32:55.616Z,4.23
2018-07-15T02:35:23.891Z,4.33
2018-07-15T02:37:52.137Z,4.10
2018-07-15T02:40:20.416Z,4.47
2018-07-15T02:42:48.718Z,4.07
2018-07-15T02:45:17.036Z,4.53
2018-07-15T02:47:45.315Z,4.10
2018-07-15T02:50:13.553Z,4.43
2018-07-15T02:52:41.848Z,4.20
2018-07-15T02:55:10.161Z,4.63
2018-07-15T02:57:38.658Z,4.60
2018-07-15T03:00:07.594Z,5.40
2018-07-15T03:02:35.830Z,4.63
2018-07-15T03:05:04.103Z,4.40
2018-07-15T03:07:32.382Z,4.30
2018-07-15T03:10:00.729Z,4.50
2018-07-15T03:12:28.961Z,4.20
2018-07-15T03:14:57.330Z,4.57
2018-07-15T03:17:25.355Z,4.60
2018-07-15T03:19:53.639Z,4.60
2018-07-15T03:22:21.873Z,4.75
2018-07-15T03:24:50.187Z,4.67
2018-07-15T03:27:18.393Z,4.63
2018-07-15T03:29:46.594Z,5.03
2018-07-15T03:32:14.865Z,4.57
2018-07-15T03:34:43.141Z,4.63
2018-07-15T03:37:11.427Z,4.50
2018-07-15T03:39:39.685Z,4.72
2018-07-15T03:42:07.962Z,5.47
2018-07-15T03:44:36.204Z,4.20
2018-07-15T03:47:04.405Z,4.77
2018-07-15T03:49:32.606Z,4.90
2018-07-15T03:52:00.625Z,5.42
2018-07-15T03:54:28.929Z,5.20
2018-07-15T03:56:57.273Z,5.37
2018-07-15T03:59:25.523Z,4.70
2018-07-15T04:01:53.722Z,4.60
2018-07-15T04:04:21.919Z,4.83
2018-07-15T04:06:50.261Z,5.00
2018-07-15T04:09:18.580Z,4.87
2018-07-15T04:11:46.903Z,5.20
2018-07-15T04:14:15.182Z,4.93
2018-07-15T04:16:43.466Z,5.20
2018-07-15T04:19:11.677Z,5.77
2018-07-15T04:21:39.885Z,5.17
2018-07-15T04:24:08.141Z,5.00
2018-07-15T04:26:36.463Z,5.10
2018-07-15T04:29:04.850Z,5.47
2018-07-15T04:31:33.062Z,6.23
2018-07-15T04:34:01.297Z,5.30
2018-07-15T04:36:29.508Z,5.53
2018-07-15T04:38:57.525Z,4.97
2018-07-15T04:41:25.754Z,5.63
2018-07-15T04:43:54.077Z,5.40
2018-07-15T04:46:22.274Z,4.87
2018-07-15T04:48:50.546Z,5.87
2018-07-15T04:51:19.058Z,5.00
2018-07-15T04:53:47.274Z,4.60
2018-07-15T04:56:15.508Z,6.07
2018-07-15T04:58:43.749Z,5.10
2018-07-15T05:01:13.825Z,4.97
2018-07-15T05:03:42.034Z,5.40
2018-07-15T05:06:10.273Z,5.57
2018-07-15T05:08:38.547Z,5.67
2018-07-15T05:11:06.777Z,5.40
2018-07-15T05:13:34.773Z,5.63
2018-07-15T05:16:03.122Z,5.03
2018-07-15T05:18:31.549Z,4.90
2018-07-15T05:20:59.804Z,4.90
2018-07-15T05:23:28.058Z,6.03
2018-07-15T05:25:56.326Z,5.50
2018-07-15T05:28:24.558Z,5.20
2018-07-15T05:30:52.828Z,5.40
2018-07-15T05:33:21.090Z,5.10
2018-07-15T05:35:49.373Z,5.10
2018-07-15T05:38:17.661Z,5.00
2018-07-15T05:40:45.966Z,5.87
2018-07-15T05:43:14.265Z,5.33
2018-07-15T05:45:42.512Z,5.87
2018-07-15T05:48:10.780Z,5.67
2018-07-15T05:50:39.014Z,6.33
2018-07-15T05:53:07.283Z,6.07
2018-07-15T05:55:35.559Z,5.53
2018-07-15T05:58:03.535Z,5.90
2018-07-15T06:00:32.206Z,6.30
2018-07-15T06:03:00.487Z,6.13
2018-07-15T06:05:28.810Z,5.93
2018-07-15T06:07:57.109Z,6.33
2018-07-15T06:10:25.318Z,7.07
2018-07-15T06:12:53.566Z,5.93
2018-07-15T06:15:21.838Z,6.23
2018-07-15T06:17:50.058Z,6.33
2018-07-15T06:20:18.288Z,6.07
2018-07-15T06:22:46.497Z,6.33
2018-07-15T06:25:14.742Z,6.27
2018-07-15T06:27:42.972Z,6.03
2018-07-15T06:30:11.305Z,5.90
2018-07-15T06:32:39.591Z,6.13
2018-07-15T06:35:07.918Z,5.57
2018-07-15T06:37:36.210Z,6.43
2018-07-15T06:40:04.923Z,5.47
2018-07-15T06:42:33.151Z,6.73
2018-07-15T06:45:01.386Z,6.30
2018-07-15T06:47:30.051Z,5.60
2018-07-15T06:49:58.273Z,5.90
2018-07-15T06:52:26.569Z,5.63
2018-07-15T06:54:54.790Z,5.67
2018-07-15T06:57:22.745Z,6.57
2018-07-15T06:59:50.987Z,5.73
2018-07-15T07:02:19.237Z,5.63
2018-07-15T07:04:47.995Z,5.80
2018-07-15T07:07:16.322Z,5.70
2018-07-15T07:09:44.589Z,5.23
2018-07-15T07:12:12.874Z,5.67
2018-07-15T07:14:41.135Z,5.50
2018-07-15T07:17:09.538Z,5.00
2018-07-15T07:19:37.761Z,5.70
2018-07-15T07:22:06.073Z,5.23
2018-07-15T07:24:34.387Z,4.60
2018-07-15T07:27:02.589Z,4.90
2018-07-15T07:29:30.912Z,4.97
2018-07-15T07:31:59.130Z,4.97
2018-07-15T07:34:27.719Z,4.80
2018-07-15T07:36:55.959Z,4.70
2018-07-15T07:39:24.207Z,4.33
2018-07-15T07:41:52.566Z,4.30
2018-07-15T07:44:20.773Z,4.47
2018-07-15T07:46:49.060Z,4.77
2018-07-15T07:49:17.286Z,4.53
2018-07-15T07:51:45.260Z,5.20
2018-07-15T07:54:13.697Z,4.60
2018-07-15T07:56:42.022Z,4.50
2018-07-15T07:59:10.245Z,3.73
2018-07-15T08:01:38.489Z,3.93
2018-07-15T08:04:07.315Z,3.23
2018-07-15T08:06:35.534Z,3.70
2018-07-15T08:09:04.843Z,4.00
2018-07-15T08:11:33.067Z,3.90
2018-07-15T08:14:01.301Z,3.40
2018-07-15T08:16:29.508Z,4.03
2018-07-15T08:18:57.709Z,3.23
2018-07-15T08:21:25.681Z,3.30
2018-07-15T08:23:53.961Z,3.60
2018-07-15T08:26:22.251Z,3.63
2018-07-15T08:28:50.551Z,3.70
2018-07-15T08:31:19.895Z,3.50
2018-07-15T08:33:48.143Z,2.90
2018-07-15T08:36:16.420Z,3.20
2018-07-15T08:38:44.630Z,3.03
2018-07-15T08:41:13.005Z,2.90
2018-07-15T08:43:41.350Z,2.20
2018-07-15T08:46:09.682Z,2.60
2018-07-15T08:48:37.885Z,1.80
2018-07-15T08:51:06.422Z,1.90
2018-07-15T08:53:34.695Z,2.17
2018-07-15T08:56:02.949Z,1.60
2018-07-15T08:58:31.165Z,2.77
2018-07-15T09:00:59.674Z,2.60
2018-07-15T09:03:27.914Z,2.50
2018-07-15T09:05:56.373Z,2.50
2018-07-15T09:08:24.681Z,2.40
2018-07-15T09:10:53.623Z,2.40
2018-07-15T09:13:21.864Z,2.30
2018-07-15T09:15:50.123Z,2.60
2018-07-15T09:18:18.408Z,2.60
2018-07-15T09:20:46.638Z,2.57
2018-07-15T09:23:14.962Z,2.10
2018-07-15T09:25:43.234Z,2.70
2018-07-15T09:28:11.828Z,2.20
2018-07-15T09:30:40.057Z,2.60
2018-07-15T09:33:08.357Z,2.40
2018-07-15T09:35:36.673Z,2.90
2018-07-15T09:38:05.013Z,2.67
2018-07-15T09:40:33.554Z,3.00
2018-07-15T09:43:01.984Z,2.83
2018-07-15T09:45:30.719Z,2.73
2018-07-15T09:47:58.937Z,2.67
2018-07-15T09:50:27.158Z,2.70
2018-07-15T09:52:55.496Z,3.43
2018-07-15T09:55:23.743Z,2.80
2018-07-15T09:57:52.266Z,2.90
2018-07-15T10:00:26.114Z,2.30
2018-07-15T10:02:54.364Z,2.73
2018-07-15T10:05:22.657Z,2.27
2018-07-15T10:07:50.958Z,2.30
2018-07-15T10:10:19.242Z,2.00
2018-07-15T10:12:47.458Z,2.07
2018-07-15T10:15:15.738Z,2.23
2018-07-15T10:17:43.964Z,2.70
2018-07-15T10:20:12.334Z,2.20
2018-07-15T10:22:40.566Z,2.40
2018-07-15T10:25:08.906Z,2.90
2018-07-15T10:27:37.367Z,2.80
2018-07-15T10:30:05.623Z,2.27
2018-07-15T10:32:33.962Z,2.80
2018-07-15T10:35:02.398Z,2.43
2018-07-15T10:37:30.743Z,2.90
2018-07-15T10:39:59.178Z,2.93
2018-07-15T10:42:27.428Z,2.00
2018-07-15T10:44:55.695Z,2.57
2018-07-15T10:47:23.969Z,3.07
2018-07-15T10:49:52.288Z,3.00
2018-07-15T10:52:20.585Z,2.70
2018-07-15T10:54:48.818Z,2.30
2018-07-15T10:57:17.310Z,2.80
2018-07-15T10:59:46.227Z,2.23
2018-07-15T11:02:14.490Z,2.10
2018-07-15T11:04:42.735Z,2.50
2018-07-15T11:07:10.997Z,2.67
2018-07-15T11:09:39.280Z,2.13
2018-07-15T11:12:07.504Z,2.27
2018-07-15T11:14:35.747Z,2.30
2018-07-15T11:17:03.973Z,2.57
2018-07-15T11:19:32.460Z,2.30
2018-07-15T11:22:00.752Z,2.23
2018-07-15T11:24:28.987Z,2.43
2018-07-15T11:26:57.178Z,2.13
2018-07-15T11:29:25.499Z,2.37
2018-07-15T11:31:53.782Z,2.10
2018-07-15T11:34:22.075Z,2.00
2018-07-15T11:36:50.283Z,2.13
2018-07-15T11:39:18.927Z,2.20
2018-07-15T11:41:47.202Z,2.13
2018-07-15T11:44:15.468Z,2.20
2018-07-15T11:46:43.750Z,2.13
2018-07-15T11:49:12.022Z,2.07
2018-07-15T11:51:40.281Z,2.70
2018-07-15T11:54:08.580Z,2.07
2018-07-15T11:56:36.841Z,2.23
2018-07-15T11:59:05.250Z,2.10
2018-07-15T12:01:33.583Z,2.10
2018-07-15T12:04:01.852Z,2.73
2018-07-15T12:06:30.195Z,4.77
2018-07-15T12:08:58.421Z,2.47
2018-07-15T12:11:26.672Z,2.27
2018-07-15T12:13:54.921Z,2.40
2018-07-15T12:16:23.129Z,2.20
2018-07-15T12:18:51.354Z,2.07
2018-07-15T12:21:19.558Z,2.10
2018-07-15T12:23:47.822Z,2.57
2018-07-15T12:26:16.088Z,2.70
2018-07-15T12:28:44.363Z,2.10
2018-07-15T12:31:12.658Z,2.87
2018-07-15T12:33:40.858Z,2.60
2018-07-15T12:36:09.189Z,2.33
2018-07-15T12:38:37.391Z,2.57
2018-07-15T12:41:05.913Z,2.53
2018-07-15T12:43:34.310Z,3.00
2018-07-15T12:46:02.527Z,2.40
2018-07-15T12:48:30.796Z,2.70
2018-07-15T12:50:59.215Z,2.33
2018-07-15T12:53:27.525Z,2.60
2018-07-15T12:55:55.789Z,2.80
2018-07-15T12:58:24.148Z,2.33
2018-07-15T13:00:52.375Z,2.50
2018-07-15T13:03:20.607Z,2.40
2018-07-15T13:05:48.844Z,2.80
2018-07-15T13:08:17.133Z,2.60
2018-07-15T13:10:45.341Z,2.17
2018-07-15T13:13:13.633Z,2.43
2018-07-15T13:15:41.892Z,2.30
2018-07-15T13:18:10.145Z,2.77
2018-07-15T13:20:38.472Z,2.47
2018-07-15T13:23:06.719Z,2.40
2018-07-15T13:25:35.023Z,2.53
2018-07-15T13:28:03.266Z,2.70
2018-07-15T13:30:31.531Z,2.30
2018-07-15T13:32:59.817Z,2.33
2018-07-15T13:35:28.217Z,2.80
2018-07-15T13:37:56.531Z,2.70
2018-07-15T13:40:25.058Z,2.33
2018-07-15T13:42:53.301Z,2.60
2018-07-15T13:45:21.528Z,2.40
2018-07-15T13:47:49.914Z,2.70
2018-07-15T13:50:18.272Z,2.40
2018-07-15T13:52:46.507Z,2.73
2018-07-15T13:55:14.823Z,2.47
2018-07-15T13:57:43.144Z,3.13
2018-07-15T14:00:11.484Z,2.60
2018-07-15T14:02:39.714Z,2.73
2018-07-15T14:05:08.225Z,2.70
2018-07-15T14:07:36.510Z,3.10
2018-07-15T14:10:05.006Z,3.00
2018-07-15T14:12:33.316Z,2.50
2018-07-15T14:15:01.522Z,12.40
2018-07-15T14:17:29.927Z,6.23
2018-07-15T14:19:58.157Z,2.43
2018-07-15T14:22:26.478Z,2.70
2018-07-15T14:24:55.014Z,2.27
2018-07-15T14:27:22.983Z,2.60
2018-07-15T14:29:51.440Z,2.73
2018-07-15T14:32:19.687Z,2.87
2018-07-15T14:34:48.067Z,2.57
2018-07-15T14:37:16.333Z,2.20
2018-07-15T14:39:44.529Z,2.40
2018-07-15T14:42:12.882Z,2.43
2018-07-15T14:44:41.194Z,2.73
2018-07-15T14:47:09.468Z,2.23
2018-07-15T14:49:37.713Z,2.70
2018-07-15T14:52:06.001Z,2.60
2018-07-15T14:54:34.262Z,2.83
2018-07-15T14:57:02.590Z,2.50
2018-07-15T14:59:31.184Z,2.83
2018-07-15T15:01:59.391Z,2.60
2018-07-15T15:04:27.608Z,2.83
2018-07-15T15:06:55.960Z,2.67
2018-07-15T15:09:24.185Z,2.93
2018-07-15T15:11:52.151Z,3.00
2018-07-15T15:14:20.364Z,3.03
2018-07-15T15:16:48.646Z,2.50
2018-07-15T15:19:16.969Z,2.50
2018-07-15T15:21:45.178Z,2.70
2018-07-15T15:24:13.402Z,2.60
2018-07-15T15:26:41.654Z,2.97
2018-07-15T15:29:09.881Z,2.50
2018-07-15T15:31:39.041Z,3.00
2018-07-15T15:34:07.650Z,2.63
2018-07-15T15:36:35.855Z,2.73
2018-07-15T15:39:04.775Z,2.37
2018-07-15T15:41:33.038Z,2.80
2018-07-15T15:44:01.252Z,2.63
2018-07-15T15:46:29.465Z,2.90
2018-07-15T15:48:57.786Z,3.40
2018-07-15T15:51:26.068Z,2.90
2018-07-15T15:53:54.288Z,2.50
2018-07-15T15:56:22.542Z,2.87
2018-07-15T15:58:50.839Z,3.00
2018-07-15T16:01:19.159Z,3.03
2018-07-15T16:03:47.400Z,2.93
2018-07-15T16:06:15.682Z,2.37
2018-07-15T16:08:43.967Z,2.83
2018-07-15T16:11:12.223Z,2.73
2018-07-15T16:13:40.438Z,3.30
2018-07-15T16:16:08.651Z,3.57
2018-07-15T16:18:36.888Z,3.50
2018-07-15T16:21:05.103Z,2.60
2018-07-15T16:23:33.351Z,2.50
2018-07-15T16:26:01.558Z,3.00
2018-07-15T16:28:29.518Z,3.00
2018-07-15T16:30:57.771Z,2.70
2018-07-15T16:33:26.026Z,3.40
2018-07-15T16:35:54.248Z,3.00
2018-07-15T16:38:22.473Z,2.83
2018-07-15T16:40:50.745Z,2.77
2018-07-15T16:43:19.035Z,2.70
2018-07-15T16:45:47.285Z,2.77
2018-07-15T16:48:15.546Z,2.50
2018-07-15T16:50:44.048Z,2.03
2018-07-15T16:53:12.311Z,2.20
2018-07-15T16:55:40.594Z,2.30
2018-07-15T16:58:08.954Z,2.43
2018-07-15T17:00:37.597Z,1.90
2018-07-15T17:03:06.124Z,2.00
2018-07-15T17:05:34.326Z,1.70
2018-07-15T17:08:02.690Z,2.03
2018-07-15T17:10:31.064Z,2.27
2018-07-15T17:12:59.307Z,2.03
2018-07-15T17:15:27.665Z,2.20
2018-07-15T17:17:56.106Z,1.90
2018-07-15T17:20:24.321Z,2.50
2018-07-15T17:22:52.912Z,1.97
2018-07-15T17:25:21.131Z,2.10
2018-07-15T17:27:49.410Z,2.40
2018-07-15T17:30:17.808Z,2.37
2018-07-15T17:32:46.205Z,2.00
2018-07-15T17:35:14.453Z,1.97
2018-07-15T17:37:43.307Z,2.40
2018-07-15T17:40:11.962Z,2.30
2018-07-15T17:42:40.193Z,2.00
2018-07-15T17:45:08.536Z,2.07
2018-07-15T17:47:36.834Z,2.37
2018-07-15T17:50:05.133Z,2.10
2018-07-15T17:52:33.506Z,2.00
2018-07-15T17:55:02.894Z,2.40
2018-07-15T17:57:31.533Z,2.13
2018-07-15T17:59:59.844Z,2.27
2018-07-15T18:02:28.241Z,1.83
2018-07-15T18:04:56.559Z,2.20
2018-07-15T18:07:24.749Z,2.30
2018-07-15T18:09:53.051Z,2.00
2018-07-15T18:12:21.309Z,2.67
2018-07-15T18:14:49.965Z,2.40
2018-07-15T18:17:18.277Z,2.70
2018-07-15T18:19:46.633Z,2.50
2018-07-15T18:22:14.904Z,2.53
2018-07-15T18:24:43.165Z,2.20
2018-07-15T18:27:11.609Z,2.53
2018-07-15T18:29:39.805Z,2.70
2018-07-15T18:32:08.039Z,2.33
2018-07-15T18:34:36.385Z,2.37
2018-07-15T18:37:04.840Z,2.47
2018-07-15T18:39:33.096Z,2.50
2018-07-15T18:42:01.498Z,2.50
2018-07-15T18:44:29.737Z,2.07
2018-07-15T18:46:58.063Z,2.10
2018-07-15T18:49:26.094Z,2.00
2018-07-15T18:51:54.389Z,2.13
2018-07-15T18:54:22.635Z,3.03
2018-07-15T18:56:50.921Z,2.53
2018-07-15T18:59:19.253Z,2.80
2018-07-15T19:01:47.549Z,2.90
2018-07-15T19:04:15.941Z,2.90
2018-07-15T19:06:44.177Z,2.70
2018-07-15T19:09:12.442Z,2.40
2018-07-15T19:11:40.721Z,2.40
2018-07-15T19:14:09.116Z,2.20
2018-07-15T19:16:37.346Z,2.20
2018-07-15T19:19:05.675Z,2.50
2018-07-15T19:21:33.961Z,2.47
2018-07-15T19:24:02.262Z,2.77
2018-07-15T19:26:30.557Z,3.10
2018-07-15T19:28:58.809Z,2.70
2018-07-15T19:31:27.070Z,2.80
2018-07-15T19:33:55.323Z,2.50
2018-07-15T19:36:24.230Z,2.73
2018-07-15T19:38:52.432Z,3.00
2018-07-15T19:41:20.666Z,2.93
2018-07-15T19:43:48.969Z,2.57
2018-07-15T19:46:17.225Z,3.00
2018-07-15T19:48:45.486Z,2.80
2018-07-15T19:51:14.411Z,3.07
2018-07-15T19:53:42.627Z,3.20
2018-07-15T19:56:10.878Z,3.23
2018-07-15T19:58:39.146Z,3.40
2018-07-15T20:01:07.546Z,3.27
2018-07-15T20:03:35.814Z,3.57
2018-07-15T20:06:04.115Z,2.80
2018-07-15T20:08:32.390Z,3.13
2018-07-15T20:11:00.686Z,3.27
2018-07-15T20:13:28.969Z,3.33
2018-07-15T20:15:57.218Z,3.27
2018-07-15T20:18:25.425Z,4.37
2018-07-15T20:20:53.653Z,3.33
2018-07-15T20:23:21.907Z,2.83
2018-07-15T20:25:50.210Z,3.10
2018-07-15T20:28:18.478Z,3.60
2018-07-15T20:30:46.750Z,3.17
2018-07-15T20:33:15.090Z,3.50
2018-07-15T20:35:43.342Z,3.47
2018-07-15T20:38:11.565Z,3.23
2018-07-15T20:40:39.774Z,4.20
2018-07-15T20:43:08.018Z,3.10
2018-07-15T20:45:36.374Z,3.30
2018-07-15T20:48:04.795Z,3.30
2018-07-15T20:50:33.213Z,3.30
2018-07-15T20:53:01.474Z,3.00
2018-07-15T20:55:30.613Z,3.30
2018-07-15T20:57:58.838Z,2.83
2018-07-15T21:00:27.132Z,3.80
2018-07-15T21:02:55.417Z,3.13
2018-07-15T21:05:24.063Z,3.80
2018-07-15T21:07:52.351Z,3.80
2018-07-15T21:10:20.569Z,3.63
2018-07-15T21:12:48.633Z,3.30
2018-07-15T21:15:16.753Z,3.93
2018-07-15T21:17:45.081Z,4.07
2018-07-15T21:20:13.282Z,3.27
2018-07-15T21:22:41.514Z,3.33
2018-07-15T21:25:09.864Z,3.50
2018-07-15T21:27:38.278Z,3.80
2018-07-15T21:30:06.242Z,4.10
2018-07-15T21:32:34.627Z,4.20
2018-07-15T21:35:02.871Z,4.00
2018-07-15T21:37:31.241Z,4.23
2018-07-15T21:39:59.475Z,4.93
2018-07-15T21:42:27.700Z,5.00
2018-07-15T21:44:55.918Z,5.10
2018-07-15T21:47:24.236Z,5.83
2018-07-15T21:49:52.701Z,5.40
2018-07-15T21:52:21.232Z,5.43
2018-07-15T21:54:49.565Z,6.03
2018-07-15T21:57:17.954Z,7.40
2018-07-15T21:59:45.967Z,6.90
2018-07-15T22:02:14.330Z,6.57
2018-07-15T22:04:42.559Z,7.67
2018-07-15T22:07:22.329Z,6.90
2018-07-15T22:10:02.102Z,8.10
2018-07-15T22:12:30.422Z,7.77
2018-07-15T22:14:58.726Z,8.20
2018-07-15T22:17:26.966Z,7.97
2018-07-15T22:19:55.255Z,8.37
2018-07-15T22:22:23.554Z,8.70
2018-07-15T22:24:51.815Z,8.43
2018-07-15T22:27:20.065Z,8.90
2018-07-15T22:29:48.297Z,9.00
2018-07-15T22:32:16.558Z,8.77
2018-07-15T22:34:44.884Z,9.50
2018-07-15T22:37:13.077Z,9.00
2018-07-15T22:39:41.309Z,9.00
2018-07-15T22:42:09.630Z,8.70
2018-07-15T22:44:37.862Z,8.73
2018-07-15T22:47:05.957Z,8.93
2018-07-15T22:49:34.272Z,8.13
2018-07-15T22:52:02.533Z,9.20
2018-07-15T22:54:30.841Z,8.73
2018-07-15T22:56:59.158Z,8.90
2018-07-15T22:59:27.445Z,8.47
2018-07-15T23:01:55.517Z,8.47
2018-07-15T23:04:43.757Z,8.97
2018-07-15T23:07:11.974Z,8.60
2018-07-15T23:09:40.244Z,8.33
2018-07-15T23:12:08.265Z,8.30
2018-07-15T23:14:36.513Z,8.47
2018-07-15T23:17:05.092Z,9.07
2018-07-15T23:19:33.101Z,8.17
2018-07-15T23:22:01.411Z,8.90
2018-07-15T23:24:29.647Z,8.40
2018-07-15T23:26:57.614Z,8.50
2018-07-15T23:29:25.581Z,8.53
2018-07-15T23:31:53.846Z,8.10
2018-07-15T23:34:22.217Z,9.10
2018-07-15T23:36:50.421Z,9.87
2018-07-15T23:39:18.692Z,8.90
2018-07-15T23:41:46.953Z,9.00
2018-07-15T23:44:15.263Z,9.90
2018-07-15T23:46:43.485Z,9.63
2018-07-15T23:49:11.685Z,10.07
2018-07-15T23:51:39.957Z,9.23
2018-07-15T23:54:08.210Z,9.87
2018-07-15T23:56:36.547Z,9.50
2018-07-15T23:59:04.758Z,8.73
